Time;durP1;ratioP1;P1;durP2;ratioP2;P2;SDS_P1;SDS_P2;PMS_P1;PMS_P2;Temp;Humidity;BMP_temperature;BMP_pressure;BME280_temperature;BME280_humidity;BME280_pressure;Samples;Min_cycle;Max_cycle;Signal;HPM_P1;HPM_P2
2021/09/16 00:01:37;;;;;;;;;11.00;9.00;;;;;19.45;65.75;101343.44;4950985;28;45208;-88
2021/09/16 00:04:04;;;;;;;;;9.00;9.00;;;;;19.42;65.81;101338.09;4951698;28;46145;-89
2021/09/16 00:06:29;;;;;;;;;12.67;10.33;;;;;19.35;66.18;101341.75;4951984;28;45390;-90
2021/09/16 00:08:55;;;;;;;;;9.00;9.00;;;;;19.45;65.77;101356.75;4943852;28;45377;-88
2021/09/16 00:11:21;;;;;;;;;11.67;9.67;;;;;19.33;66.53;101350.63;4940562;28;45275;-91
2021/09/16 00:13:47;;;;;;;;;10.33;10.33;;;;;19.38;66.18;101355.03;4941347;28;48314;-88
2021/09/16 00:16:12;;;;;;;;;12.67;10.33;;;;;19.27;66.32;101337.38;4927428;28;45450;-88
2021/09/16 00:18:38;;;;;;;;;11.33;9.67;;;;;19.25;66.36;101336.50;4946120;28;45519;-88
2021/09/16 00:21:03;;;;;;;;;8.67;8.00;;;;;19.22;66.10;101341.88;4946057;28;45313;-88
2021/09/16 00:23:29;;;;;;;;;10.00;10.00;;;;;19.20;66.30;101335.66;4951002;28;45469;-89
2021/09/16 00:25:54;;;;;;;;;13.67;12.33;;;;;19.22;66.02;101341.88;4963823;28;44666;-87
2021/09/16 00:28:20;;;;;;;;;11.00;9.67;;;;;19.18;66.10;101330.34;4932549;28;44776;-89
2021/09/16 00:30:48;;;;;;;;;12.33;10.33;;;;;19.14;66.19;101322.38;4964895;28;45141;-89
2021/09/16 00:33:14;;;;;;;;;9.67;9.00;;;;;19.11;66.45;101325.94;4947744;28;46158;-91
2021/09/16 00:35:40;;;;;;;;;14.00;9.50;;;;;19.23;67.39;101348.94;4952405;28;45427;-91
2021/09/16 00:38:05;;;;;;;;;10.00;9.00;;;;;19.19;67.22;101347.22;4948432;28;45378;-90
2021/09/16 00:40:31;;;;;;;;;11.00;11.00;;;;;19.17;66.80;101338.34;4946943;28;45304;-89
2021/09/16 00:42:56;;;;;;;;;13.00;9.33;;;;;19.19;66.71;101348.09;4950935;28;48184;-89
2021/09/16 00:45:21;;;;;;;;;11.67;9.00;;;;;19.21;67.04;101364.06;4945635;28;45373;-90
2021/09/16 00:47:49;;;;;;;;;12.00;11.00;;;;;19.18;66.82;101365.00;4942600;28;45514;-88
2021/09/16 00:50:17;;;;;;;;;10.00;9.33;;;;;19.16;66.65;101376.56;4941765;28;45316;-90
2021/09/16 00:52:43;;;;;;;;;11.33;10.33;;;;;19.13;66.24;101368.56;4941109;28;45516;-88
2021/09/16 00:55:10;;;;;;;;;9.67;8.00;;;;;19.13;66.81;101377.44;4939910;28;45454;-89
2021/09/16 00:57:39;;;;;;;;;9.33;8.00;;;;;19.02;66.69;101361.53;4939593;28;45465;-90
2021/09/16 01:00:08;;;;;;;;;11.67;11.67;;;;;19.13;67.20;101384.53;4940327;28;45275;-92
2021/09/16 01:02:33;;;;;;;;;11.33;11.33;;;;;19.10;66.67;101378.34;4942199;28;47395;-88
2021/09/16 01:04:59;;;;;;;;;11.00;9.67;;;;;19.09;67.25;101378.34;4944509;28;45353;-91
2021/09/16 01:07:25;;;;;;;;;11.33;9.67;;;;;19.03;66.82;101367.75;4943136;28;45424;-91
2021/09/16 01:09:50;;;;;;;;;9.00;8.67;;;;;18.97;67.32;101358.03;4945139;28;45407;-88
2021/09/16 01:12:16;;;;;;;;;12.00;10.67;;;;;19.05;67.03;101376.63;4943449;28;47501;-88
2021/09/16 01:14:41;;;;;;;;;14.33;11.33;;;;;19.00;66.91;101367.75;4927536;28;45419;-87
2021/09/16 01:17:07;;;;;;;;;8.33;8.33;;;;;18.95;66.85;101362.50;4927747;28;45458;-89
2021/09/16 01:19:32;;;;;;;;;14.33;12.00;;;;;18.87;67.57;101359.84;4926898;28;45431;-87
2021/09/16 01:21:58;;;;;;;;;14.33;11.33;;;;;19.01;67.01;101382.88;4943151;28;45990;-89
2021/09/16 01:24:23;;;;;;;;;13.00;12.67;;;;;18.96;67.17;101380.22;4942386;28;45281;-90
2021/09/16 01:26:49;;;;;;;;;12.00;12.00;;;;;18.96;66.81;101382.88;4942918;28;45352;-89
2021/09/16 01:29:15;;;;;;;;;8.67;8.67;;;;;18.85;67.26;101356.31;4942163;28;45324;-88
2021/09/16 01:31:49;;;;;;;;;9.33;9.33;;;;;18.92;66.91;101378.47;4924828;28;47318;-91
2021/09/16 01:34:16;;;;;;;;;10.33;8.00;;;;;18.96;66.91;101398.88;4940573;28;45396;-88
2021/09/16 01:36:44;;;;;;;;;14.00;9.33;;;;;18.94;66.95;101400.66;4924800;28;45384;-89
2021/09/16 01:39:13;;;;;;;;;11.67;9.67;;;;;18.88;66.77;101390.94;4942504;28;45286;-89
2021/09/16 01:41:38;;;;;;;;;10.67;9.00;;;;;18.92;67.40;101397.13;4927197;28;45580;-89
2021/09/16 01:44:04;;;;;;;;;9.67;6.00;;;;;18.80;67.58;101377.69;4925930;28;45364;-89
2021/09/16 01:46:30;;;;;;;;;12.00;8.33;;;;;18.80;67.71;101383.00;4938621;28;45261;-89
2021/09/16 01:49:00;;;;;;;;;9.67;9.00;;;;;18.79;67.26;101385.66;4940045;28;45384;-88
2021/09/16 01:51:26;;;;;;;;;10.33;9.00;;;;;18.81;67.42;101394.53;4922397;28;47437;-90
2021/09/16 01:53:52;;;;;;;;;9.00;8.00;;;;;18.71;67.27;101391.06;4939837;28;45462;-88
2021/09/16 01:56:17;;;;;;;;;9.33;8.67;;;;;18.73;67.14;101390.16;4940115;28;45526;-89
2021/09/16 01:58:44;;;;;;;;;13.33;9.33;;;;;18.77;67.56;101391.00;4940161;28;45420;-88
2021/09/16 02:01:09;;;;;;;;;10.67;8.00;;;;;18.74;67.72;101389.25;4940080;28;46189;-88
2021/09/16 02:03:35;;;;;;;;;9.33;9.33;;;;;18.65;67.35;101385.75;4938745;28;46024;-93
2021/09/16 02:06:00;;;;;;;;;10.33;7.67;;;;;18.68;67.16;101404.38;4940019;28;45372;-90
2021/09/16 02:08:26;;;;;;;;;6.67;6.67;;;;;18.70;68.07;101406.13;4939920;28;45391;-89
2021/09/16 02:10:51;;;;;;;;;9.67;8.67;;;;;18.65;67.83;101405.28;4940103;28;45774;-90
2021/09/16 02:13:17;;;;;;;;;16.33;9.67;;;;;18.65;67.50;101405.28;4938832;28;45339;-89
2021/09/16 02:15:42;;;;;;;;;11.00;8.33;;;;;18.63;67.84;101393.78;4938664;28;45244;-88
2021/09/16 02:18:08;;;;;;;;;10.33;9.00;;;;;18.61;67.46;101406.22;4923333;28;45542;-90
2021/09/16 02:20:34;;;;;;;;;6.67;6.00;;;;;18.66;67.10;101411.47;4940668;28;45998;-88
2021/09/16 02:22:59;;;;;;;;;13.33;9.67;;;;;18.59;67.70;101405.34;4944663;28;45508;-86
2021/09/16 02:25:25;;;;;;;;;9.67;9.00;;;;;18.60;67.61;101407.97;4946917;28;45448;-89
2021/09/16 02:27:50;;;;;;;;;7.67;7.67;;;;;18.62;67.67;101411.50;4947099;28;45283;-89
2021/09/16 02:30:16;;;;;;;;;10.00;10.00;;;;;18.57;67.71;101412.44;4946619;28;45350;-88
2021/09/16 02:32:41;;;;;;;;;7.67;7.67;;;;;18.52;67.67;101410.69;4946660;28;46104;-88
2021/09/16 02:35:08;;;;;;;;;8.67;7.67;;;;;18.44;67.54;101406.28;4947367;28;45719;-89
2021/09/16 02:37:33;;;;;;;;;11.67;7.67;;;;;18.54;67.76;101420.44;4947353;28;45176;-87
2021/09/16 02:39:59;;;;;;;;;10.33;10.00;;;;;18.44;68.14;101406.28;4927412;28;47128;-88
2021/09/16 02:42:24;;;;;;;;;9.67;8.33;;;;;18.47;67.59;101412.47;4929827;28;45371;-88
2021/09/16 02:44:50;;;;;;;;;12.33;9.00;;;;;18.42;67.49;101406.31;4946060;28;45160;-88
2021/09/16 02:47:15;;;;;;;;;8.00;7.00;;;;;18.46;67.81;101420.47;4941665;28;45417;-91
2021/09/16 02:49:41;;;;;;;;;11.33;9.00;;;;;18.38;67.47;101405.41;4942046;28;47391;-90
2021/09/16 02:52:06;;;;;;;;;9.00;7.33;;;;;18.38;68.05;101408.06;4927089;28;45822;-89
2021/09/16 02:54:32;;;;;;;;;8.00;8.00;;;;;18.42;67.54;101410.72;4943352;28;45486;-89
2021/09/16 02:56:57;;;;;;;;;11.00;7.33;;;;;18.34;67.78;101406.31;4948202;28;45363;-89
2021/09/16 02:59:23;;;;;;;;;10.67;10.67;;;;;18.46;67.67;101429.34;4958015;28;45125;-89
2021/09/16 03:01:48;;;;;;;;;8.67;8.67;;;;;18.47;67.75;101420.47;4958592;28;44737;-89
2021/09/16 03:04:13;;;;;;;;;14.67;9.33;;;;;18.42;67.77;101426.72;4942450;28;44869;-87
2021/09/16 03:06:39;;;;;;;;;14.00;8.67;;;;;18.43;67.81;101425.78;4959957;28;45430;-89
2021/09/16 03:09:04;;;;;;;;;8.67;7.00;;;;;18.38;67.25;101425.84;4944693;28;47111;-89
2021/09/16 03:11:30;;;;;;;;;11.00;10.33;;;;;18.33;67.42;101419.63;4963255;28;44719;-88
2021/09/16 03:13:55;;;;;;;;;9.33;9.33;;;;;18.36;67.21;101431.16;4961732;28;45256;-87
2021/09/16 03:16:21;;;;;;;;;9.33;7.00;;;;;18.39;67.60;101438.25;4961975;28;44811;-89
2021/09/16 03:18:46;;;;;;;;;11.00;8.67;;;;;18.35;67.56;101423.19;4961599;28;46117;-88
2021/09/16 03:21:12;;;;;;;;;12.33;9.33;;;;;18.45;67.44;101434.66;4961056;28;44677;-90
2021/09/16 03:23:38;;;;;;;;;10.33;9.00;;;;;18.32;67.12;101418.75;4950328;28;45458;-87
2021/09/16 03:26:03;;;;;;;;;7.33;7.00;;;;;18.35;67.36;101421.41;4955008;28;44786;-87
2021/09/16 03:28:29;;;;;;;;;8.00;8.00;;;;;18.38;68.08;101423.19;4961175;28;45214;-87
2021/09/16 03:30:54;;;;;;;;;9.33;9.00;;;;;18.44;67.69;101432.91;4960833;28;44816;-88
2021/09/16 03:33:21;;;;;;;;;11.33;10.67;;;;;18.40;67.43;101432.91;4956349;28;45337;-89
2021/09/16 03:35:47;;;;;;;;;11.33;9.67;;;;;18.35;67.40;101423.19;4963213;28;45224;-88
2021/09/16 03:38:12;;;;;;;;;7.33;7.00;;;;;18.36;67.23;101425.81;4969111;28;45291;-91
2021/09/16 03:40:37;;;;;;;;;10.67;10.67;;;;;18.38;67.41;101432.03;4966916;28;44708;-88
2021/09/16 03:43:03;;;;;;;;;11.67;8.67;;;;;18.37;67.71;101427.59;4964208;28;45345;-88
2021/09/16 03:45:28;;;;;;;;;10.67;7.67;;;;;18.45;67.27;101432.91;4951050;28;45265;-89
2021/09/16 03:47:55;;;;;;;;;10.00;9.67;;;;;18.37;67.69;101421.41;4953139;28;45838;-88
2021/09/16 03:50:21;;;;;;;;;11.00;6.33;;;;;18.46;67.59;101436.44;4953657;28;45367;-89
2021/09/16 03:52:46;;;;;;;;;9.33;7.67;;;;;18.39;67.64;101420.50;4954148;28;45419;-88
2021/09/16 03:55:11;;;;;;;;;10.67;9.67;;;;;18.39;67.53;101422.28;4945363;28;45418;-91
2021/09/16 03:57:37;;;;;;;;;12.67;10.33;;;;;18.40;67.48;101430.25;4943647;28;45379;-89
2021/09/16 04:00:06;;;;;;;;;9.00;9.00;;;;;18.36;68.02;101425.81;4945517;28;45393;-90
2021/09/16 04:02:31;;;;;;;;;14.33;11.33;;;;;18.38;68.01;101428.50;4946528;28;45287;-90
2021/09/16 04:04:56;;;;;;;;;10.67;8.00;;;;;18.44;67.46;101444.44;4945932;28;45169;-90
2021/09/16 04:07:22;;;;;;;;;9.00;9.00;;;;;18.34;67.41;101424.09;4944811;28;46244;-91
2021/09/16 04:09:47;;;;;;;;;8.33;7.00;;;;;18.39;67.77;101432.91;4943798;28;45257;-89
2021/09/16 04:12:13;;;;;;;;;12.33;10.67;;;;;18.41;68.13;101428.47;4949268;28;45355;-88
2021/09/16 04:14:38;;;;;;;;;10.00;9.33;;;;;18.48;68.05;101447.97;4952426;28;45484;-89
2021/09/16 04:17:04;;;;;;;;;10.00;7.67;;;;;18.44;68.03;101441.78;4954993;28;45378;-89
2021/09/16 04:19:29;;;;;;;;;9.33;7.67;;;;;18.49;68.44;101455.94;4954357;28;45894;-88
2021/09/16 04:21:54;;;;;;;;;9.33;9.33;;;;;18.44;68.18;101443.56;4956619;28;45409;-89
2021/09/16 04:24:20;;;;;;;;;10.67;10.67;;;;;18.50;67.44;101460.41;4936062;28;44720;-88
2021/09/16 04:26:46;;;;;;;;;11.67;10.33;;;;;18.47;68.01;101459.50;4950482;28;45440;-89
2021/09/16 04:29:12;;;;;;;;;13.00;10.00;;;;;18.56;67.25;101464.81;4954343;28;45409;-89
2021/09/16 04:31:38;;;;;;;;;9.33;9.00;;;;;18.43;67.62;101449.75;4952907;28;45256;-89
2021/09/16 04:34:04;;;;;;;;;12.33;9.33;;;;;18.46;67.28;101457.75;4956104;28;45252;-88
2021/09/16 04:36:29;;;;;;;;;11.00;8.67;;;;;18.45;67.81;101456.84;4956323;28;45614;-88
2021/09/16 04:38:55;;;;;;;;;10.33;10.33;;;;;18.46;67.72;101448.00;4949209;28;45275;-92
2021/09/16 04:41:20;;;;;;;;;10.33;7.00;;;;;18.49;67.51;101450.63;4946978;28;45301;-90
2021/09/16 04:43:45;;;;;;;;;11.00;10.00;;;;;18.49;67.62;101457.72;4943801;28;45399;-90
2021/09/16 04:46:11;;;;;;;;;11.33;9.00;;;;;18.48;67.10;101454.19;4944440;28;46069;-91
2021/09/16 04:48:36;;;;;;;;;9.67;9.33;;;;;18.48;67.41;101450.63;4942537;28;45435;-91
2021/09/16 04:51:02;;;;;;;;;10.67;9.00;;;;;18.56;67.68;101461.25;4943421;28;45311;-89
2021/09/16 04:53:27;;;;;;;;;10.00;8.33;;;;;18.38;67.45;101437.34;4943318;28;45251;-90
2021/09/16 04:55:53;;;;;;;;;9.67;9.33;;;;;18.50;67.30;101459.50;4941090;28;46154;-91
2021/09/16 04:58:18;;;;;;;;;9.33;9.33;;;;;18.40;67.32;101446.22;4940916;28;45475;-91
2021/09/16 05:00:44;;;;;;;;;12.67;12.33;;;;;18.51;67.15;101466.59;4940937;28;45946;-91
2021/09/16 05:03:09;;;;;;;;;11.33;10.67;;;;;18.46;67.52;101469.28;4940889;28;45393;-91
2021/09/16 05:05:34;;;;;;;;;12.00;9.33;;;;;18.41;67.14;101460.41;4923296;28;46222;-89
2021/09/16 05:08:00;;;;;;;;;13.00;10.33;;;;;18.46;66.96;101476.38;4940822;28;45528;-89
2021/09/16 05:10:25;;;;;;;;;13.00;9.67;;;;;18.39;67.17;101471.06;4941166;28;45427;-89
2021/09/16 05:12:51;;;;;;;;;13.33;10.00;;;;;18.43;67.00;101477.28;4939735;28;45463;-90
2021/09/16 05:15:17;;;;;;;;;14.33;9.33;;;;;18.43;66.88;101482.59;4940600;28;45375;-92
2021/09/16 05:17:42;;;;;;;;;12.00;7.67;;;;;18.38;66.97;101466.63;4923565;28;45579;-88
2021/09/16 05:20:08;;;;;;;;;10.67;10.00;;;;;18.33;67.23;101463.13;4940383;28;45414;-90
2021/09/16 05:22:34;;;;;;;;;9.33;8.00;;;;;18.33;67.50;101460.44;4923692;28;45366;-89
2021/09/16 05:24:59;;;;;;;;;12.67;11.67;;;;;18.34;67.01;101466.66;4940255;28;45919;-88
2021/09/16 05:27:25;;;;;;;;;10.00;9.67;;;;;18.41;67.18;101487.03;4940504;28;45376;-89
2021/09/16 05:29:50;;;;;;;;;11.33;9.33;;;;;18.35;67.38;101476.41;4940595;28;45339;-91
2021/09/16 05:32:16;;;;;;;;;12.33;8.00;;;;;18.39;67.56;101473.75;4940839;28;45427;-90
2021/09/16 05:34:42;;;;;;;;;11.00;9.33;;;;;18.39;66.92;101473.75;4938901;28;47007;-90
2021/09/16 05:37:08;;;;;;;;;11.00;10.00;;;;;18.37;66.96;101470.19;4939513;28;45834;-91
2021/09/16 05:39:33;;;;;;;;;7.00;7.00;;;;;18.41;67.05;101476.38;4941998;28;45354;-88
2021/09/16 05:41:58;;;;;;;;;8.67;8.67;;;;;18.45;67.54;101482.56;4939804;28;45402;-83
2021/09/16 05:44:24;;;;;;;;;9.33;8.00;;;;;18.44;67.86;101481.72;4939076;28;47237;-83
2021/09/16 05:46:49;;;;;;;;;8.00;8.00;;;;;18.50;67.76;101483.47;4957014;28;45395;-83
2021/09/16 05:49:15;;;;;;;;;7.33;7.00;;;;;18.48;67.72;101485.25;4958770;28;45483;-84
2021/09/16 05:51:40;;;;;;;;;9.67;8.00;;;;;18.52;67.12;101479.03;4959089;28;45477;-84
2021/09/16 05:54:06;;;;;;;;;8.00;7.00;;;;;18.53;67.44;101480.78;4958887;28;45301;-85
2021/09/16 05:56:31;;;;;;;;;10.33;5.67;;;;;18.49;67.18;101479.00;4958796;28;45402;-84
2021/09/16 05:58:56;;;;;;;;;13.00;7.33;;;;;18.54;67.21;101487.00;4958598;28;45310;-84
2021/09/16 06:01:22;;;;;;;;;9.33;5.67;;;;;18.50;67.12;101492.34;4958960;28;45382;-84
2021/09/16 06:03:48;;;;;;;;;6.67;6.67;;;;;18.51;67.28;101494.09;4958525;28;46026;-85
2021/09/16 06:06:13;;;;;;;;;10.33;7.00;;;;;18.53;67.04;101502.06;4958982;28;45390;-85
2021/09/16 06:08:40;;;;;;;;;7.67;7.67;;;;;18.51;67.13;101503.84;4958798;28;45140;-85
2021/09/16 06:11:05;;;;;;;;;7.33;6.33;;;;;18.47;67.15;101507.41;4958587;28;45309;-83
2021/09/16 06:13:30;;;;;;;;;9.00;6.67;;;;;18.47;67.13;101512.75;4958406;28;46288;-83
2021/09/16 06:15:56;;;;;;;;;11.67;7.67;;;;;18.47;66.87;101513.63;4958454;28;45479;-83
2021/09/16 06:18:21;;;;;;;;;7.33;7.33;;;;;18.47;66.36;101523.38;4958370;28;45294;-85
2021/09/16 06:20:49;;;;;;;;;10.00;8.00;;;;;18.44;67.22;101523.41;4958814;28;45410;-84
2021/09/16 06:23:15;;;;;;;;;6.33;6.33;;;;;18.42;66.51;101526.09;4957942;28;47013;-83
2021/09/16 06:25:40;;;;;;;;;9.33;7.67;;;;;18.42;67.20;101539.41;4958167;28;45389;-83
2021/09/16 06:28:06;;;;;;;;;9.33;9.00;;;;;18.36;67.18;101521.66;4958131;28;45553;-84
2021/09/16 06:30:31;;;;;;;;;10.00;7.33;;;;;18.38;67.14;101532.31;4958424;28;45317;-84
2021/09/16 06:32:56;;;;;;;;;8.33;7.00;;;;;18.34;67.07;101528.75;4957935;28;45976;-84
2021/09/16 06:35:22;;;;;;;;;11.00;8.00;;;;;18.34;66.93;101528.75;4957931;28;45379;-82
2021/09/16 06:37:47;;;;;;;;;8.00;6.67;;;;;18.31;66.84;101522.56;4961962;28;45390;-84
2021/09/16 06:40:13;;;;;;;;;9.00;6.67;;;;;18.32;66.78;101542.97;4958442;28;45446;-84
2021/09/16 06:42:39;;;;;;;;;6.67;6.67;;;;;18.25;66.58;101540.28;4958222;28;45372;-86
2021/09/16 06:45:05;;;;;;;;;8.33;7.67;;;;;18.25;66.53;101547.41;4959508;28;45323;-86
2021/09/16 06:47:30;;;;;;;;;10.00;7.33;;;;;18.19;66.80;101532.31;4958160;28;45409;-86
2021/09/16 06:49:56;;;;;;;;;8.67;8.67;;;;;18.20;67.21;101539.44;4940673;28;45326;-86
2021/09/16 06:52:22;;;;;;;;;12.33;9.00;;;;;18.28;66.32;101547.41;4958130;28;45607;-86
2021/09/16 06:54:49;;;;;;;;;11.67;8.00;;;;;18.25;66.44;101542.94;4940658;28;45354;-86
2021/09/16 06:57:14;;;;;;;;;7.33;7.00;;;;;18.27;66.61;101543.84;4940404;28;45433;-86
2021/09/16 06:59:40;;;;;;;;;9.00;6.00;;;;;18.25;66.42;101544.75;4940081;28;45323;-85
2021/09/16 07:02:06;;;;;;;;;7.67;7.33;;;;;18.27;66.45;101545.63;4957947;28;46510;-86
2021/09/16 07:04:31;;;;;;;;;8.00;6.67;;;;;18.26;66.10;101536.75;4957907;28;45323;-85
2021/09/16 07:06:59;;;;;;;;;7.67;5.33;;;;;18.26;66.39;101538.53;4940475;28;45334;-85
2021/09/16 07:09:24;;;;;;;;;7.00;6.00;;;;;18.29;66.27;101543.84;4957674;28;45491;-86
2021/09/16 07:11:50;;;;;;;;;7.67;5.00;;;;;18.25;66.32;101540.28;4957763;28;45342;-85
2021/09/16 07:14:15;;;;;;;;;6.67;6.67;;;;;18.31;66.64;101542.06;4940490;28;45327;-86
2021/09/16 07:16:41;;;;;;;;;11.00;7.67;;;;;18.31;66.20;101546.50;4958275;28;45878;-86
2021/09/16 07:19:06;;;;;;;;;11.33;10.00;;;;;18.31;66.50;101541.19;4958061;28;45156;-86
2021/09/16 07:21:32;;;;;;;;;8.67;7.00;;;;;18.26;66.78;101535.88;4957848;28;45563;-86
2021/09/16 07:23:57;;;;;;;;;11.67;7.00;;;;;18.30;66.32;101548.28;4957633;28;45394;-86
2021/09/16 07:26:24;;;;;;;;;10.67;9.33;;;;;18.29;66.74;101541.19;4957832;28;45705;-86
2021/09/16 07:28:49;;;;;;;;;8.00;6.00;;;;;18.28;66.42;101537.63;4958028;28;45453;-86
2021/09/16 07:31:15;;;;;;;;;12.67;7.00;;;;;18.39;66.23;101550.94;4957717;28;45963;-86
2021/09/16 07:33:40;;;;;;;;;7.00;7.00;;;;;18.35;66.26;101543.84;4957548;28;45274;-86
2021/09/16 07:36:06;;;;;;;;;6.00;6.00;;;;;18.41;65.94;101550.91;4957958;28;45343;-86
2021/09/16 07:38:31;;;;;;;;;5.33;5.33;;;;;18.43;65.68;101550.91;4956038;28;45417;-86
2021/09/16 07:40:57;;;;;;;;;8.00;6.00;;;;;18.44;66.03;101550.03;4957346;28;47021;-86
2021/09/16 07:43:22;;;;;;;;;7.00;4.33;;;;;18.32;66.11;101535.00;4939965;28;45386;-85
2021/09/16 07:45:47;;;;;;;;;7.67;5.67;;;;;18.48;66.45;101558.03;4957576;28;45374;-86
2021/09/16 07:48:13;;;;;;;;;4.33;3.67;;;;;18.46;66.14;101557.13;4957846;28;45348;-86
2021/09/16 07:50:39;;;;;;;;;6.33;6.33;;;;;18.47;65.02;101555.34;4957340;28;45341;-85
2021/09/16 07:53:05;;;;;;;;;8.00;7.00;;;;;18.47;64.29;101555.34;4957814;28;45308;-86
2021/09/16 07:55:30;;;;;;;;;8.00;5.67;;;;;18.46;65.07;101553.59;4957534;28;45256;-85
2021/09/16 07:57:55;;;;;;;;;5.00;5.00;;;;;18.44;64.50;101550.03;4940120;28;45501;-85
2021/09/16 08:00:21;;;;;;;;;6.67;5.33;;;;;18.55;65.18;101569.50;4957759;28;46293;-85
2021/09/16 08:02:48;;;;;;;;;9.00;5.00;;;;;18.55;64.93;101569.50;4957237;28;45291;-86
2021/09/16 08:05:16;;;;;;;;;5.33;4.67;;;;;18.54;65.28;101562.44;4957267;28;45283;-85
2021/09/16 08:07:42;;;;;;;;;5.33;5.00;;;;;18.58;64.77;101576.63;4939583;28;45522;-84
2021/09/16 08:10:08;;;;;;;;;5.67;4.33;;;;;18.59;64.80;101573.94;4956959;28;45622;-84
2021/09/16 08:12:34;;;;;;;;;4.67;4.00;;;;;18.59;64.91;101573.94;4958554;28;45540;-85
2021/09/16 08:14:59;;;;;;;;;7.33;4.33;;;;;18.65;64.45;101577.50;4960822;28;45252;-85
2021/09/16 08:17:25;;;;;;;;;4.67;2.67;;;;;18.60;64.26;101564.19;4960869;28;45409;-84
2021/09/16 08:19:50;;;;;;;;;5.00;5.00;;;;;18.68;64.90;101570.38;4960447;28;45502;-87
2021/09/16 08:22:15;;;;;;;;;5.67;2.67;;;;;18.70;64.81;101568.59;4960696;28;45460;-85
2021/09/16 08:24:41;;;;;;;;;4.67;4.67;;;;;18.74;65.04;101578.34;4960479;28;45341;-85
2021/09/16 08:27:07;;;;;;;;;7.00;5.00;;;;;18.75;65.58;101572.13;4943439;28;45432;-86
2021/09/16 08:29:32;;;;;;;;;3.00;3.00;;;;;18.79;64.94;101578.34;4960604;28;45233;-85
2021/09/16 08:31:58;;;;;;;;;6.00;4.00;;;;;18.78;64.79;101571.25;4959978;28;45283;-85
2021/09/16 08:34:25;;;;;;;;;4.67;4.67;;;;;18.76;64.50;101549.06;4960426;28;45398;-84
2021/09/16 08:36:51;;;;;;;;;3.67;3.67;;;;;18.78;63.86;101557.94;4960406;28;45327;-85
2021/09/16 08:39:16;;;;;;;;;5.00;3.00;;;;;18.80;64.18;101553.47;4960476;28;45884;-85
2021/09/16 08:41:43;;;;;;;;;4.33;3.00;;;;;18.87;63.86;101562.31;4961185;28;45547;-84
2021/09/16 08:44:09;;;;;;;;;3.00;3.00;;;;;18.91;64.00;101566.72;4943157;28;45512;-85
2021/09/16 08:46:35;;;;;;;;;3.33;3.33;;;;;18.92;63.20;101567.63;4961266;28;45352;-84
2021/09/16 08:49:01;;;;;;;;;5.33;4.00;;;;;18.95;63.43;101568.50;4960623;28;46310;-84
2021/09/16 08:51:28;;;;;;;;;2.67;2.67;;;;;18.94;63.39;101561.41;4962410;28;45455;-85
2021/09/16 08:53:54;;;;;;;;;6.00;3.33;;;;;19.00;63.47;101568.47;4963663;28;45337;-84
2021/09/16 08:56:21;;;;;;;;;5.00;3.67;;;;;19.02;64.21;101574.69;4944854;28;45582;-85
2021/09/16 08:58:48;;;;;;;;;4.00;4.00;;;;;19.06;63.33;101572.88;4943254;28;46764;-86
2021/09/16 09:01:17;;;;;;;;;3.33;3.00;;;;;19.12;62.93;101580.84;4960501;28;45452;-87
2021/09/16 09:03:43;;;;;;;;;4.00;3.00;;;;;19.12;63.74;101572.84;4960462;28;45358;-85
2021/09/16 09:06:25;;;;;;;;;3.67;3.67;;;;;19.16;63.26;101574.63;4959893;28;45387;-85
2021/09/16 09:09:05;;;;;;;;;3.00;3.00;;;;;19.28;62.12;101576.38;4959770;28;45631;-86
2021/09/16 09:11:31;;;;;;;;;5.00;4.00;;;;;19.33;63.55;101587.03;4942274;28;46230;-85
2021/09/16 09:13:56;;;;;;;;;5.00;3.00;;;;;19.42;62.46;101586.06;4942638;28;45356;-85
2021/09/16 09:16:34;;;;;;;;;4.67;3.00;;;;;19.52;62.83;101590.44;4943633;28;45402;-85
2021/09/16 09:18:59;;;;;;;;;9.33;4.33;;;;;19.63;60.74;101594.84;4960348;28;45405;-85
2021/09/16 09:21:36;;;;;;;;;4.00;3.00;;;;;19.75;61.11;101594.75;4960020;28;45346;-85
2021/09/16 09:24:02;;;;;;;;;3.33;2.67;;;;;19.87;61.00;101579.53;4963895;28;45384;-84
2021/09/16 09:26:34;;;;;;;;;3.33;3.33;;;;;20.08;60.19;101569.56;4971879;28;45301;-85
2021/09/16 09:29:08;;;;;;;;;3.67;3.67;;;;;20.61;60.10;101587.78;4941952;28;47054;-86
2021/09/16 09:31:43;;;;;;;;;5.00;4.00;;;;;21.13;60.13;101600.56;4959723;28;45339;-86
2021/09/16 09:34:24;;;;;;;;;3.00;3.00;;;;;21.59;58.81;101593.69;4959616;28;45339;-85
2021/09/16 09:36:50;;;;;;;;;4.33;3.00;;;;;21.96;59.04;101589.53;4959831;28;45390;-85
2021/09/16 09:39:23;;;;;;;;;4.00;3.33;;;;;22.27;58.74;101590.78;4959043;28;46188;-85
2021/09/16 09:41:49;;;;;;;;;8.33;4.00;;;;;22.52;56.89;101592.13;4959270;28;45441;-85
2021/09/16 09:44:14;;;;;;;;;3.00;3.00;;;;;22.81;56.83;101595.19;4959419;28;45418;-85
2021/09/16 09:46:41;;;;;;;;;4.00;4.00;;;;;23.16;54.72;101585.50;4959435;28;45366;-85
2021/09/16 09:49:10;;;;;;;;;3.00;3.00;;;;;23.53;53.42;101585.63;4958860;28;45892;-86
2021/09/16 09:51:47;;;;;;;;;4.00;4.00;;;;;23.93;54.47;101587.31;4958984;28;45402;-86
2021/09/16 09:54:40;;;;;;;;;3.33;3.00;;;;;24.44;53.38;101588.72;4959246;28;45433;-86
2021/09/16 09:57:15;;;;;;;;;5.00;4.00;;;;;24.84;51.47;101590.28;4880768;29;45503;-85
2021/09/16 09:59:49;;;;;;;;;4.00;4.00;;;;;25.27;52.16;101594.44;4880283;29;45551;-85
2021/09/16 10:02:15;;;;;;;;;4.67;4.67;;;;;25.60;50.61;101593.41;4880291;29;45426;-85
2021/09/16 10:04:42;;;;;;;;;6.33;4.00;;;;;26.00;50.65;101585.84;4880789;29;45306;-85
2021/09/16 10:07:07;;;;;;;;;5.33;4.33;;;;;26.35;49.14;101590.94;4880773;29;45734;-85
2021/09/16 10:09:33;;;;;;;;;4.33;4.33;;;;;26.62;47.90;101590.00;4880472;29;45300;-86
2021/09/16 10:11:58;;;;;;;;;3.00;3.00;;;;;26.78;49.42;101587.63;4880598;29;45577;-85
2021/09/16 10:14:25;;;;;;;;;5.33;3.67;;;;;26.99;46.44;101588.59;4880183;29;45575;-86
2021/09/16 10:16:50;;;;;;;;;5.00;5.00;;;;;27.17;45.75;101584.34;4880593;29;45422;-85
2021/09/16 10:19:16;;;;;;;;;5.67;4.00;;;;;27.26;45.75;101576.84;4879840;29;45447;-85
2021/09/16 10:21:42;;;;;;;;;5.00;5.00;;;;;27.61;46.42;101584.41;4880023;29;45471;-86
2021/09/16 10:24:13;;;;;;;;;6.00;4.67;;;;;28.18;44.40;101580.25;4880087;29;45456;-86
2021/09/16 10:26:45;;;;;;;;;4.67;4.67;;;;;29.02;44.56;101583.75;4864328;29;45442;-86
2021/09/16 10:29:32;;;;;;;;;6.67;6.33;;;;;29.90;43.61;101576.81;4879719;29;46202;-86
2021/09/16 10:32:06;;;;;;;;;4.00;4.00;;;;;30.54;41.80;101584.38;4879523;29;45500;-86
2021/09/16 10:34:42;;;;;;;;;4.00;4.00;;;;;30.96;41.11;101575.78;4934235;28;45759;-85
2021/09/16 10:37:18;;;;;;;;;4.00;4.00;;;;;31.29;40.71;101563.09;4941278;28;45324;-86
2021/09/16 10:39:46;;;;;;;;;6.00;5.67;;;;;31.25;39.44;101581.41;4958304;28;46196;-85
2021/09/16 10:42:14;;;;;;;;;7.33;6.33;;;;;31.35;37.93;101584.44;4940580;28;45438;-85
2021/09/16 10:44:41;;;;;;;;;5.33;4.00;;;;;31.51;38.48;101570.03;4958036;28;45294;-85
2021/09/16 10:47:18;;;;;;;;;8.33;5.33;;;;;32.10;39.34;101571.09;4958431;28;45359;-86
2021/09/16 10:49:45;;;;;;;;;8.00;6.00;;;;;32.58;36.36;101564.50;4957295;28;46347;-86
2021/09/16 10:52:10;;;;;;;;;4.67;4.33;;;;;33.15;37.20;101570.88;4958096;28;45374;-86
2021/09/16 10:54:56;;;;;;;;;6.00;5.00;;;;;33.85;37.01;101573.56;4957943;28;45338;-85
2021/09/16 10:57:40;;;;;;;;;6.67;4.67;;;;;34.67;34.60;101573.34;4958303;28;45397;-86
2021/09/16 11:00:16;;;;;;;;;7.00;5.33;;;;;34.69;33.97;101574.13;4958000;28;45479;-86
2021/09/16 11:02:43;;;;;;;;;5.00;4.67;;;;;33.81;34.73;101574.75;4940254;28;45834;-85
2021/09/16 11:05:14;;;;;;;;;8.00;5.67;;;;;33.22;33.48;101568.66;4940921;28;45375;-86
2021/09/16 11:07:42;;;;;;;;;5.00;5.00;;;;;32.43;33.86;101566.34;4958105;28;45278;-86
2021/09/16 11:10:17;;;;;;;;;6.67;4.33;;;;;31.57;34.40;101563.34;4957759;28;45516;-85
2021/09/16 11:12:48;;;;;;;;;6.00;4.33;;;;;31.40;35.12;101563.34;4957362;28;45464;-86
2021/09/16 11:15:23;;;;;;;;;4.67;4.00;;;;;32.28;34.89;101570.94;4940118;28;45345;-85
2021/09/16 11:17:49;;;;;;;;;5.00;4.00;;;;;33.24;34.66;101572.16;4958011;28;45758;-86
2021/09/16 11:20:15;;;;;;;;;5.00;3.33;;;;;33.89;33.27;101570.59;4957627;28;46426;-85